ěÝzenÝ letovÚho provozu ╚eskÚ republiky
Letiste: LKPR Aktualizace: 21.09.2021 04:30:28  UTC
 METAR LKPR 21.09. 04:30 ...
METAR LKPR 210430Z 29003KT 260V320 CAVOK 09/07 Q1025 NOSIG RMK REG QNH 1022=
 TAF LKPR 20.09. 23:00 ...
TAF LKPR 202300Z 2100/2206 33006KT 9999 SCT040      PROB30 TEMPO 2101/2106 4000 BR BKN013      BECMG 2123/2201 BKN027      PROB40 TEMPO 2203/2206 6000 RA OVC013      TEMPO 2205/2206 31014G26KT=